17:44
Airports
Links
Donate
Help keep this website running!
PayPal
Bitcoin
METAR
LIMC 191720Z 17003KT 9999 BKN035 05/M01 Q1015 NOSIG
Current Weather Conditions at LIMC
VFR 17:20:00 19-02-18
Altimeter:29.97 hg
Temp:5.0°c 41°f
Dew point:-1.0°c 30°f
Wind:3 knots, 3.5 mph, 2 m/s, from 170°
Visibility:6.21 statute miles
3500(BKN) Broken
No significant weather changes expected within 2 hours.
Past METAR reports
VFR 16:50:00 19-02-18
Altimeter:29.97 hg
Temp:6.0°c 43°f
Dew point:-2.0°c 28°f
Wind:1 knots, 1.2 mph, 1 m/s,
Variable direction
Visibility:6.21 statute miles
3500(BKN) Broken
No significant weather changes expected within 2 hours.
LIMC 191650Z VRB01KT 9999 BKN035 06/M02 Q1015 NOSIG
VFR 16:20:00 19-02-18
Altimeter:29.97 hg
Temp:6.0°c 43°f
Dew point:-2.0°c 28°f
Wind:2 knots, 2.3 mph, 1 m/s,
Variable direction
Visibility:6.21 statute miles
3500(BKN) Broken
No significant weather changes expected within 2 hours.
LIMC 191620Z VRB02KT 9999 BKN035 06/M02 Q1015 NOSIG
VFR 15:50:00 19-02-18
Altimeter:29.97 hg
Temp:6.0°c 43°f
Dew point:-2.0°c 28°f
Wind:4 knots, 4.6 mph, 2 m/s,
Variable direction
Visibility:6.21 statute miles
3500(BKN) Broken
No significant weather changes expected within 2 hours.
LIMC 191550Z VRB04KT 9999 BKN035 06/M02 Q1015 NOSIG
VFR 15:20:00 19-02-18
Altimeter:29.97 hg
Temp:7.0°c 45°f
Dew point:-1.0°c 30°f
Wind:2 knots, 2.3 mph, 1 m/s,
Variable direction
Visibility:6.21 statute miles
3500(BKN) Broken
No significant weather changes expected within 2 hours.
LIMC 191520Z VRB02KT 9999 BKN035 07/M01 Q1015 NOSIG
VFR 14:50:00 19-02-18
Altimeter:29.97 hg
Temp:6.0°c 43°f
Dew point:-1.0°c 30°f
Wind:4 knots, 4.6 mph, 2 m/s, from 230°
Visibility:6.21 statute miles
3500(BKN) Broken
No significant weather changes expected within 2 hours.
LIMC 191450Z 23004KT 170V300 9999 BKN035 06/M01 Q1015 NOSIG
VFR 14:20:00 19-02-18
Altimeter:30.00 hg
Temp:6.0°c 43°f
Dew point:-2.0°c 28°f
Wind:2 knots, 2.3 mph, 1 m/s,
Variable direction
Visibility:6.21 statute miles
3500(BKN) Broken
No significant weather changes expected within 2 hours.
LIMC 191420Z VRB02KT 9999 BKN035 06/M02 Q1016 NOSIG
TAF
TAF LIMC 191700Z 1918/2024 VRB05KT 9999 BKN050
Forecast at LIMC
18:00 19-02-18 to 00:00 21-02-18
Wind:5 Knots from 360°
Visibility:6.21 statute miles
5000BKN Broken